createdAt,value
2019-01-19T00:00:36.648Z,97791.02
2019-01-19T00:04:38.273Z,97793.97
2019-01-19T00:08:39.617Z,97797.44
2019-01-19T00:12:22.448Z,97784.11
2019-01-19T00:15:51.863Z,97787.07
2019-01-19T00:19:45.182Z,97778.22
2019-01-19T00:23:31.471Z,97778.19
2019-01-19T00:27:16.835Z,97774.47
2019-01-19T00:31:07.968Z,97768.12
2019-01-19T00:34:55.742Z,97766.75
2019-01-19T00:38:33.485Z,97761.27
2019-01-19T00:42:02.637Z,97768.61
2019-01-19T00:45:51.193Z,97765.67
2019-01-19T00:49:24.424Z,97764.38
2019-01-19T00:53:06.768Z,97766.88
2019-01-19T00:56:45.577Z,97759.63
2019-01-19T00:59:57.404Z,97766.55
2019-01-19T01:03:30.105Z,97762.67
2019-01-19T01:07:03.328Z,97769.53
2019-01-19T01:10:49.518Z,97766.16
2019-01-19T01:14:43.499Z,97758.95
2019-01-19T01:18:24.402Z,97763.22
2019-01-19T01:22:26.474Z,97764.53
2019-01-19T01:25:55.755Z,97758.54
2019-01-19T01:30:01.207Z,97760.27
2019-01-19T01:33:57.663Z,97758.21
2019-01-19T01:37:35.438Z,97758.61
2019-01-19T01:41:22.083Z,97759.89
2019-01-19T01:44:48.733Z,97753.45
2019-01-19T01:48:29.093Z,97756.07
2019-01-19T01:52:13.870Z,97744.99
2019-01-19T01:55:45.865Z,97740.73
2019-01-19T01:59:57.205Z,97740.30
2019-01-19T02:03:32.969Z,97739.89
2019-01-19T02:07:23.290Z,97739.00
2019-01-19T02:11:04.611Z,97734.74
2019-01-19T02:15:01.541Z,97736.45
2019-01-19T02:18:40.931Z,97733.45
2019-01-19T02:22:31.172Z,97728.33
2019-01-19T02:26:15.437Z,97731.80
2019-01-19T02:30:09.035Z,97723.22
2019-01-19T02:33:42.506Z,97724.51
2019-01-19T02:37:19.074Z,97720.63
2019-01-19T02:41:00.792Z,97721.87
2019-01-19T02:44:48.245Z,97723.15
2019-01-19T02:48:42.015Z,97721.06
2019-01-19T02:52:38.633Z,97728.27
2019-01-19T02:56:35.772Z,97725.27
2019-01-19T03:00:18.631Z,97719.31
2019-01-19T03:03:56.378Z,97717.58
2019-01-19T03:08:14.152Z,97717.58
2019-01-19T03:12:00.868Z,97714.59
2019-01-19T03:15:53.232Z,97715.44
2019-01-19T03:19:43.263Z,97712.05
2019-01-19T03:23:35.686Z,97720.08
2019-01-19T03:27:19.394Z,97717.96
2019-01-19T03:30:56.067Z,97726.52
2019-01-19T03:34:46.474Z,97714.97
2019-01-19T03:38:52.450Z,97717.51
2019-01-19T03:42:25.745Z,97709.82
2019-01-19T03:46:02.554Z,97706.37
2019-01-19T03:49:44.682Z,97713.16
2019-01-19T03:53:23.661Z,97718.64
2019-01-19T03:57:01.249Z,97713.12
2019-01-19T04:00:23.081Z,97704.22
2019-01-19T04:04:08.016Z,97705.50
2019-01-19T04:07:39.107Z,97708.08
2019-01-19T04:11:15.339Z,97701.63
2019-01-19T04:15:02.816Z,97699.11
2019-01-19T04:18:32.236Z,97696.56
2019-01-19T04:21:45.885Z,97695.70
2019-01-19T04:25:08.727Z,97695.32
2019-01-19T04:28:17.863Z,97691.92
2019-01-19T04:31:24.730Z,97691.02
2019-01-19T04:34:31.494Z,97693.56
2019-01-19T04:37:38.257Z,97691.87
2019-01-19T04:40:45.159Z,97689.38
2019-01-19T04:43:51.834Z,97699.61
2019-01-19T04:46:58.389Z,97693.19
2019-01-19T04:50:05.493Z,97686.41
2019-01-19T04:53:12.192Z,97687.22
2019-01-19T04:56:18.706Z,97689.80
2019-01-19T04:59:25.428Z,97694.09
2019-01-19T05:02:32.206Z,97685.55
2019-01-19T05:05:38.446Z,97680.84
2019-01-19T05:08:45.147Z,97673.17
2019-01-19T05:11:51.624Z,97669.31
2019-01-19T05:14:58.288Z,97672.70
2019-01-19T05:18:05.387Z,97674.88
2019-01-19T05:21:12.276Z,97674.83
2019-01-19T05:24:19.023Z,97673.53
2019-01-19T05:27:25.489Z,97668.83
2019-01-19T05:30:32.356Z,97679.48
2019-01-19T05:33:39.277Z,97679.45
2019-01-19T05:36:45.787Z,97677.75
2019-01-19T05:39:52.316Z,97677.30
2019-01-19T05:42:58.971Z,97679.80
2019-01-19T05:46:05.962Z,97678.47
2019-01-19T05:49:12.666Z,97678.91
2019-01-19T05:52:19.044Z,97670.77
2019-01-19T05:55:25.788Z,97672.95
2019-01-19T05:58:32.163Z,97673.33
2019-01-19T06:01:39.561Z,97672.86
2019-01-19T06:04:46.279Z,97669.88
2019-01-19T06:07:54.211Z,97669.46
2019-01-19T06:11:00.801Z,97669.02
2019-01-19T06:14:07.471Z,97664.73
2019-01-19T06:17:13.882Z,97661.24
2019-01-19T06:20:20.509Z,97657.44
2019-01-19T06:23:26.904Z,97655.25
2019-01-19T06:26:33.719Z,97657.39
2019-01-19T06:29:41.644Z,97653.06
2019-01-19T06:32:48.238Z,97653.02
2019-01-19T06:35:55.018Z,97650.81
2019-01-19T06:39:01.667Z,97651.22
2019-01-19T06:42:09.835Z,97648.64
2019-01-19T06:45:22.144Z,97648.80
2019-01-19T06:48:28.961Z,97645.77
2019-01-19T06:51:38.248Z,97648.23
2019-01-19T06:54:44.905Z,97651.15
2019-01-19T06:57:51.980Z,97643.90
2019-01-19T07:00:58.761Z,97649.02
2019-01-19T07:04:05.982Z,97657.96
2019-01-19T07:07:12.693Z,97658.84
2019-01-19T07:10:21.378Z,97662.52
2019-01-19T07:13:28.270Z,97657.38
2019-01-19T07:16:35.370Z,97657.78
2019-01-19T07:19:41.931Z,97658.71
2019-01-19T07:22:48.608Z,97665.50
2019-01-19T07:25:56.027Z,97668.87
2019-01-19T07:29:04.053Z,97667.60
2019-01-19T07:32:11.822Z,97662.03
2019-01-19T07:35:20.051Z,97664.62
2019-01-19T07:38:27.173Z,97662.41
2019-01-19T07:41:34.553Z,97661.52
2019-01-19T07:44:41.730Z,97666.30
2019-01-19T07:47:49.291Z,97666.72
2019-01-19T07:50:56.020Z,97665.02
2019-01-19T07:54:02.867Z,97669.30
2019-01-19T07:57:11.196Z,97671.92
2019-01-19T08:00:21.979Z,97669.42
2019-01-19T08:03:28.936Z,97674.16
2019-01-19T08:06:36.365Z,97674.33
2019-01-19T08:09:43.089Z,97678.17
2019-01-19T08:12:50.046Z,97676.95
2019-01-19T08:15:56.294Z,97681.73
2019-01-19T08:19:03.722Z,97675.42
2019-01-19T08:22:10.086Z,97675.03
2019-01-19T08:25:16.894Z,97672.05
2019-01-19T08:28:23.286Z,97670.42
2019-01-19T08:31:30.238Z,97673.48
2019-01-19T08:34:39.550Z,97673.94
2019-01-19T08:37:46.756Z,97665.02
2019-01-19T08:40:53.863Z,97665.90
2019-01-19T08:44:03.044Z,97667.19
2019-01-19T08:47:09.647Z,97659.09
2019-01-19T08:50:16.419Z,97662.14
2019-01-19T08:53:23.024Z,97661.30
2019-01-19T08:56:29.778Z,97654.03
2019-01-19T08:59:36.674Z,97653.17
2019-01-19T09:02:43.433Z,97656.16
2019-01-19T09:05:50.660Z,97656.97
2019-01-19T09:08:58.506Z,97651.39
2019-01-19T09:12:05.773Z,97645.75
2019-01-19T09:15:15.756Z,97645.55
2019-01-19T09:18:22.594Z,97645.91
2019-01-19T09:21:29.671Z,97651.35
2019-01-19T09:24:36.217Z,97655.96
2019-01-19T09:27:43.461Z,97648.53
2019-01-19T09:30:50.763Z,97649.36
2019-01-19T09:33:58.235Z,97647.42
2019-01-19T09:37:04.611Z,97644.60
2019-01-19T09:40:12.949Z,97647.04
2019-01-19T09:43:19.732Z,97647.81
2019-01-19T09:46:26.073Z,97643.81
2019-01-19T09:49:32.896Z,97631.55
2019-01-19T09:52:39.283Z,97639.89
2019-01-19T09:55:46.203Z,97634.67
2019-01-19T09:58:53.127Z,97623.59
2019-01-19T10:02:00.413Z,97626.56
2019-01-19T10:05:10.782Z,97626.81
2019-01-19T10:08:17.176Z,97626.72
2019-01-19T10:11:23.745Z,97619.44
2019-01-19T10:14:30.969Z,97621.84
2019-01-19T10:17:37.668Z,97618.01
2019-01-19T10:20:44.426Z,97613.97
2019-01-19T10:23:51.132Z,97617.97
2019-01-19T10:26:57.917Z,97611.90
2019-01-19T10:30:05.276Z,97610.63
2019-01-19T10:33:12.380Z,97604.26
2019-01-19T10:36:19.149Z,97595.02
2019-01-19T10:39:26.368Z,97597.61
2019-01-19T10:42:32.754Z,97591.58
2019-01-19T10:45:40.146Z,97594.34
2019-01-19T10:48:46.981Z,97583.75
2019-01-19T10:51:59.386Z,97580.50
2019-01-19T10:55:03.170Z,97582.60
2019-01-19T10:58:10.010Z,97578.20
2019-01-19T11:01:16.694Z,97578.12
2019-01-19T11:04:24.545Z,97568.08
2019-01-19T11:07:31.405Z,97568.60
2019-01-19T11:10:38.437Z,97568.65
2019-01-19T11:13:46.123Z,97557.73
2019-01-19T11:16:53.063Z,97554.47
2019-01-19T11:20:00.478Z,97553.45
2019-01-19T11:23:07.490Z,97549.58
2019-01-19T11:26:14.102Z,97553.87
2019-01-19T11:29:21.843Z,97544.33
2019-01-19T11:32:28.935Z,97541.61
2019-01-19T11:35:36.460Z,97535.98
2019-01-19T11:38:43.096Z,97530.02
2019-01-19T11:41:50.436Z,97532.16
2019-01-19T11:44:57.190Z,97528.49
2019-01-19T11:48:03.866Z,97517.80
2019-01-19T11:51:11.753Z,97518.75
2019-01-19T11:54:18.201Z,97512.70
2019-01-19T11:57:24.926Z,97516.08
2019-01-19T12:00:33.320Z,97512.48
2019-01-19T12:03:39.980Z,97509.92
2019-01-19T12:06:46.979Z,97508.95
2019-01-19T12:09:53.481Z,97505.20
2019-01-19T12:13:00.798Z,97502.14
2019-01-19T12:16:07.422Z,97499.73
2019-01-19T12:19:13.839Z,97496.82
2019-01-19T12:22:20.228Z,97488.67
2019-01-19T12:25:26.677Z,97488.09
2019-01-19T12:28:34.513Z,97486.29
2019-01-19T12:31:41.531Z,97482.34
2019-01-19T12:34:48.272Z,97481.59
2019-01-19T12:37:55.158Z,97475.38
2019-01-19T12:41:01.797Z,97474.45
2019-01-19T12:44:08.997Z,97477.83
2019-01-19T12:47:15.891Z,97473.39
2019-01-19T12:50:24.397Z,97470.73
2019-01-19T12:53:31.309Z,97467.92
2019-01-19T12:56:39.883Z,97465.66
2019-01-19T12:59:46.556Z,97460.83
2019-01-19T13:02:53.310Z,97455.31
2019-01-19T13:06:38.673Z,97454.92
2019-01-19T13:09:57.789Z,97450.22
2019-01-19T13:13:08.863Z,97448.08
2019-01-19T13:17:05.978Z,97443.33
2019-01-19T13:21:01.859Z,97436.45
2019-01-19T13:24:26.949Z,97438.83
2019-01-19T13:27:55.767Z,97436.01
2019-01-19T13:31:32.752Z,97426.00
2019-01-19T13:35:26.972Z,97426.17
2019-01-19T13:39:00.846Z,97423.45
2019-01-19T13:42:41.303Z,97423.81
2019-01-19T13:46:15.990Z,97421.78
2019-01-19T13:50:07.680Z,97422.23
2019-01-19T13:53:46.248Z,97423.41
2019-01-19T13:57:20.927Z,97427.63
2019-01-19T14:01:09.195Z,97433.91
2019-01-19T14:04:27.207Z,97417.95
2019-01-19T14:08:18.819Z,97421.70
2019-01-19T14:11:52.160Z,97416.49
2019-01-19T14:15:33.831Z,97415.24
2019-01-19T14:19:21.264Z,97406.75
2019-01-19T14:23:11.044Z,97399.44
2019-01-19T14:26:42.903Z,97394.92
2019-01-19T14:30:29.358Z,97394.58
2019-01-19T14:34:17.676Z,97398.36
2019-01-19T14:38:11.512Z,97392.44
2019-01-19T14:41:46.707Z,97393.63
2019-01-19T14:45:13.934Z,97381.55
2019-01-19T14:48:56.584Z,97388.52
2019-01-19T14:52:39.975Z,97384.28
2019-01-19T14:56:19.356Z,97386.11
2019-01-19T14:59:35.260Z,97384.02
2019-01-19T15:03:24.854Z,97383.49
2019-01-19T15:06:58.457Z,97387.78
2019-01-19T15:10:41.232Z,97384.02
2019-01-19T15:14:10.103Z,97379.42
2019-01-19T15:17:23.460Z,97383.73
2019-01-19T15:20:56.168Z,97385.93
2019-01-19T15:24:26.976Z,97390.16
2019-01-19T15:28:17.084Z,97382.08
2019-01-19T15:31:50.951Z,97382.88
2019-01-19T15:35:53.340Z,97379.13
2019-01-19T15:39:13.072Z,97380.89
2019-01-19T15:42:47.357Z,97376.40
2019-01-19T15:46:17.329Z,97369.70
2019-01-19T15:50:00.774Z,97375.67
2019-01-19T15:53:53.767Z,97371.72
2019-01-19T15:57:17.712Z,97370.52
2019-01-19T16:00:57.954Z,97371.04
2019-01-19T16:04:45.769Z,97370.27
2019-01-19T16:08:36.046Z,97380.61
2019-01-19T16:12:17.230Z,97373.17
2019-01-19T16:16:32.503Z,97379.39
2019-01-19T16:20:15.593Z,97372.39
2019-01-19T16:23:48.429Z,97377.69
2019-01-19T16:27:07.024Z,97368.55
2019-01-19T16:31:01.016Z,97372.87
2019-01-19T16:34:57.697Z,97375.39
2019-01-19T16:38:48.276Z,97378.25
2019-01-19T16:42:16.874Z,97374.03
2019-01-19T16:46:12.576Z,97381.17
2019-01-19T16:50:05.321Z,97387.72
2019-01-19T16:53:24.943Z,97378.85
2019-01-19T16:57:07.834Z,97372.63
2019-01-19T17:00:52.517Z,97375.23
2019-01-19T17:04:38.818Z,97374.48
2019-01-19T17:08:22.296Z,97367.64
2019-01-19T17:11:57.633Z,97371.59
2019-01-19T17:15:54.523Z,97362.27
2019-01-19T17:19:24.874Z,97362.77
2019-01-19T17:23:04.610Z,97368.88
2019-01-19T17:26:47.228Z,97365.16
2019-01-19T17:30:27.270Z,97363.32
2019-01-19T17:33:47.249Z,97361.91
2019-01-19T17:37:30.535Z,97366.70
2019-01-19T17:41:16.103Z,97368.52
2019-01-19T17:45:01.018Z,97374.95
2019-01-19T17:48:30.703Z,97377.92
2019-01-19T17:52:26.705Z,97381.94
2019-01-19T17:56:38.052Z,97377.68
2019-01-19T18:00:09.606Z,97383.23
2019-01-19T18:03:50.456Z,97380.73
2019-01-19T18:07:47.778Z,97385.03
2019-01-19T18:11:37.327Z,97380.35
2019-01-19T18:15:25.634Z,97381.67
2019-01-19T18:18:56.108Z,97383.00
2019-01-19T18:22:42.203Z,97383.40
2019-01-19T18:26:25.433Z,97383.86
2019-01-19T18:30:08.240Z,97379.68
2019-01-19T18:33:53.409Z,97383.08
2019-01-19T18:37:47.589Z,97384.83
2019-01-19T18:41:28.431Z,97382.27
2019-01-19T18:44:59.307Z,97376.31
2019-01-19T18:48:58.864Z,97382.73
2019-01-19T18:53:00.242Z,97382.75
2019-01-19T18:57:18.142Z,97371.25
2019-01-19T19:00:57.521Z,97367.84
2019-01-19T19:04:47.360Z,97371.27
2019-01-19T19:08:20.245Z,97369.19
2019-01-19T19:11:39.943Z,97365.36
2019-01-19T19:15:22.364Z,97364.09
2019-01-19T19:19:12.318Z,97367.48
2019-01-19T19:22:40.319Z,97361.53
2019-01-19T19:26:23.843Z,97356.00
2019-01-19T19:30:11.182Z,97362.81
2019-01-19T19:34:04.445Z,97355.57
2019-01-19T19:37:48.909Z,97351.73
2019-01-19T19:41:42.970Z,97353.43
2019-01-19T19:45:27.179Z,97355.58
2019-01-19T19:49:05.596Z,97357.72
2019-01-19T19:52:14.361Z,97362.42
2019-01-19T19:55:19.152Z,97357.72
2019-01-19T19:58:25.889Z,97353.44
2019-01-19T20:01:33.153Z,97356.45
2019-01-19T20:04:41.099Z,97350.47
2019-01-19T20:07:49.335Z,97354.31
2019-01-19T20:11:00.046Z,97347.46
2019-01-19T20:14:12.339Z,97347.47
2019-01-19T20:17:21.507Z,97352.16
2019-01-19T20:20:30.117Z,97356.00
2019-01-19T20:23:37.507Z,97362.41
2019-01-19T20:26:48.168Z,97356.43
2019-01-19T20:29:55.656Z,97357.71
2019-01-19T20:33:03.816Z,97351.33
2019-01-19T20:36:11.756Z,97359.41
2019-01-19T20:39:20.231Z,97350.88
2019-01-19T20:42:27.732Z,97349.61
2019-01-19T20:45:34.798Z,97349.59
2019-01-19T20:48:41.632Z,97347.44
2019-01-19T20:51:48.360Z,97344.89
2019-01-19T20:55:01.021Z,97344.44
2019-01-19T20:58:07.442Z,97348.27
2019-01-19T21:01:15.399Z,97342.73
2019-01-19T21:04:22.856Z,97347.41
2019-01-19T21:07:30.218Z,97343.98
2019-01-19T21:10:38.930Z,97348.69
2019-01-19T21:13:47.486Z,97353.80
2019-01-19T21:16:54.281Z,97351.21
2019-01-19T21:20:02.387Z,97352.06
2019-01-19T21:23:13.128Z,97354.17
2019-01-19T21:26:20.450Z,97350.33
2019-01-19T21:29:34.552Z,97357.16
2019-01-19T21:32:41.640Z,97355.02
2019-01-19T21:35:48.861Z,97353.30
2019-01-19T21:38:55.945Z,97351.13
2019-01-19T21:42:03.216Z,97350.30
2019-01-19T21:45:14.266Z,97350.27
2019-01-19T21:48:24.014Z,97351.55
2019-01-19T21:51:30.873Z,97352.41
2019-01-19T21:54:37.967Z,97346.05
2019-01-19T21:57:44.793Z,97347.30
2019-01-19T22:00:51.648Z,97346.01
2019-01-19T22:03:58.189Z,97341.77
2019-01-19T22:07:05.004Z,97337.50
2019-01-19T22:10:14.230Z,97342.58
2019-01-19T22:13:21.437Z,97345.55
2019-01-19T22:16:27.854Z,97344.68
2019-01-19T22:19:34.575Z,97346.35
2019-01-19T22:22:41.114Z,97345.53
2019-01-19T22:25:47.934Z,97346.39
2019-01-19T22:28:54.650Z,97345.48
2019-01-19T22:32:01.903Z,97353.17
2019-01-19T22:35:09.670Z,97351.88
2019-01-19T22:38:16.210Z,97358.27
2019-01-19T22:41:22.888Z,97351.85
2019-01-19T22:44:29.355Z,97357.80
2019-01-19T22:47:36.644Z,97350.08
2019-01-19T22:50:43.292Z,97347.97
2019-01-19T22:53:49.862Z,97344.17
2019-01-19T22:56:56.637Z,97341.19
2019-01-19T23:00:03.649Z,97335.21
2019-01-19T23:03:10.038Z,97338.61
2019-01-19T23:06:17.531Z,97337.30
2019-01-19T23:09:25.319Z,97333.86
2019-01-19T23:12:32.632Z,97341.13
2019-01-19T23:15:40.598Z,97338.98
2019-01-19T23:18:47.868Z,97330.94
2019-01-19T23:21:54.780Z,97330.53
2019-01-19T23:25:01.350Z,97328.00
2019-01-19T23:28:09.599Z,97325.42
2019-01-19T23:31:19.272Z,97323.31
2019-01-19T23:34:26.356Z,97322.84
2019-01-19T23:37:32.899Z,97325.83
2019-01-19T23:40:39.436Z,97326.67
2019-01-19T23:43:46.730Z,97320.77
2019-01-19T23:46:53.667Z,97313.48
2019-01-19T23:50:00.314Z,97316.48
2019-01-19T23:53:06.879Z,97310.48
2019-01-19T23:56:13.594Z,97309.66
2019-01-19T23:59:20.643Z,97305.84
